Time;durP1;ratioP1;P1;durP2;ratioP2;P2;SDS_P1;SDS_P2;PMS_P1;PMS_P2;Temp;Humidity;BMP_temperature;BMP_pressure;BME280_temperature;BME280_humidity;BME280_pressure;Samples;Min_cycle;Max_cycle;Signal;HPM_P1;HPM_P2
2021/04/06 00:00:10;;;;;;;3.42;0.55;;;;;;;-0.63;51.34;100703.78;4996507;28;20051;-69
2021/04/06 00:02:40;;;;;;;1.23;0.15;;;;;;;-0.56;51.08;100703.81;4981616;28;20101;-68
2021/04/06 00:05:08;;;;;;;5.53;0.30;;;;;;;-0.46;50.67;100696.13;4961629;28;20073;-67
2021/04/06 00:07:37;;;;;;;4.07;0.20;;;;;;;-0.68;51.40;100702.91;4964363;28;20034;-66
2021/04/06 00:10:27;;;;;;;5.70;0.22;;;;;;;-0.32;50.43;100703.91;4964130;28;20038;-66
2021/04/06 00:12:56;;;;;;;2.08;0.17;;;;;;;-0.36;50.46;100698.72;4951619;28;20483;-67
2021/04/06 00:15:24;;;;;;;4.22;0.35;;;;;;;-0.46;50.50;100701.25;4959600;28;20074;-67
2021/04/06 00:17:52;;;;;;;2.13;0.40;;;;;;;-0.84;51.54;100704.53;4964299;28;20034;-66
2021/04/06 00:20:20;;;;;;;5.60;0.52;;;;;;;-0.51;50.54;100706.38;4977743;28;20034;-66
2021/04/06 00:22:47;;;;;;;2.85;0.60;;;;;;;-0.67;50.77;100712.34;4965765;28;20065;-66
2021/04/06 00:25:22;;;;;;;4.65;0.63;;;;;;;-0.62;51.55;100706.34;4977039;28;20061;-67
2021/04/06 00:27:51;;;;;;;2.70;0.20;;;;;;;-0.86;52.72;100713.94;4979337;28;20449;-66
2021/04/06 00:30:23;;;;;;;2.22;0.30;;;;;;;-0.81;52.36;100702.00;4981280;28;20481;-66
2021/04/06 00:32:56;;;;;;;2.33;0.38;;;;;;;-0.70;52.01;100708.03;4992522;28;20034;-68
2021/04/06 00:35:27;;;;;;;2.65;1.10;;;;;;;-0.46;51.61;100701.25;4963456;28;20077;-68
2021/04/06 00:37:54;;;;;;;5.45;0.63;;;;;;;-0.48;51.75;100696.16;4961180;28;20026;-67
2021/04/06 00:40:21;;;;;;;1.88;0.20;;;;;;;-0.45;51.98;100703.00;4967304;28;20026;-67
2021/04/06 00:42:47;;;;;;;5.25;0.30;;;;;;;-0.29;51.32;100699.59;4962153;28;20039;-68
2021/04/06 00:45:18;;;;;;;5.00;0.35;;;;;;;-0.31;51.77;100706.44;4961195;28;20393;-66
2021/04/06 00:47:44;;;;;;;7.57;0.20;;;;;;;-0.42;52.50;100703.00;4978157;28;20452;-68
2021/04/06 00:50:12;;;;;;;12.20;0.65;;;;;;;-0.17;52.17;100691.94;4963110;28;20042;-68
2021/04/06 00:52:45;;;;;;;4.40;0.53;;;;;;;0.02;52.17;100707.38;4963207;28;20067;-65
2021/04/06 00:55:16;;;;;;;21.90;1.02;;;;;;;-0.50;54.26;100700.41;4961348;28;20773;-66
2021/04/06 00:57:43;;;;;;;7.38;1.58;;;;;;;-0.21;54.44;100705.63;4980329;28;20042;-67
2021/04/06 01:00:12;;;;;;;15.55;0.88;;;;;;;-0.08;54.48;100700.50;4994527;28;20035;-66
2021/04/06 01:02:37;;;;;;;14.35;0.73;;;;;;;-0.35;55.38;100715.88;4963285;28;20053;-67
2021/04/06 01:05:05;;;;;;;9.68;1.20;;;;;;;-0.04;54.71;100721.03;4961500;28;20790;-69
2021/04/06 01:07:34;;;;;;;13.02;0.77;;;;;;;-0.28;54.54;100731.28;4979184;28;20043;-67
2021/04/06 01:10:00;;;;;;;7.35;0.50;;;;;;;-0.40;54.66;100732.09;4965140;28;20027;-69
2021/04/06 01:12:28;;;;;;;1.42;0.20;;;;;;;-0.76;55.79;100746.50;4976383;28;20038;-68
2021/04/06 01:14:55;;;;;;;5.05;0.40;;;;;;;-0.82;56.13;100754.16;4963725;28;20035;-68
2021/04/06 01:17:24;;;;;;;3.67;0.40;;;;;;;-0.53;55.15;100753.44;4982721;28;20070;-71
2021/04/06 01:19:49;;;;;;;7.03;0.30;;;;;;;-0.32;54.64;100725.28;5002969;28;20892;-66
2021/04/06 01:22:17;;;;;;;2.38;0.10;;;;;;;-0.53;54.83;100727.78;4967284;28;20129;-69
2021/04/06 01:24:44;;;;;;;10.43;0.20;;;;;;;0.09;53.38;100737.34;4969798;28;20066;-67
2021/04/06 01:27:14;;;;;;;2.85;0.30;;;;;;;0.15;53.17;100732.22;4967983;28;20652;-67
2021/04/06 01:29:46;;;;;;;1.25;0.10;;;;;;;-0.05;53.72;100731.34;4970438;28;20045;-65
2021/04/06 01:32:12;;;;;;;5.80;0.40;;;;;;;0.18;53.02;100729.66;4995769;28;20471;-66
2021/04/06 01:34:39;;;;;;;4.22;0.20;;;;;;;0.21;52.74;100729.66;4967112;28;20047;-67
2021/04/06 01:37:06;;;;;;;1.95;0.45;;;;;;;0.07;53.02;100724.50;4968829;28;20069;-68
2021/04/06 01:39:33;;;;;;;1.30;0.10;;;;;;;0.06;53.25;100732.22;4984207;28;20038;-71
2021/04/06 01:42:01;;;;;;;2.72;0.20;;;;;;;0.40;52.35;100724.53;4970950;28;20386;-66
2021/04/06 01:44:28;;;;;;;1.10;0.20;;;;;;;0.51;52.03;100715.09;4973012;28;20053;-68
2021/04/06 01:46:56;;;;;;;6.15;0.38;;;;;;;0.55;51.73;100711.66;4972282;28;20365;-68
2021/04/06 01:49:22;;;;;;;4.65;0.20;;;;;;;0.42;51.96;100721.09;4986075;28;20026;-68
2021/04/06 01:51:48;;;;;;;6.18;0.82;;;;;;;0.06;53.45;100714.22;4991996;28;20034;-68
2021/04/06 01:54:17;;;;;;;6.07;0.95;;;;;;;0.32;53.03;100718.50;4971951;28;20038;-67
2021/04/06 01:56:52;;;;;;;2.70;0.20;;;;;;;0.48;51.63;100730.53;4968827;28;20034;-67
2021/04/06 01:59:38;;;;;;;4.38;0.20;;;;;;;0.56;51.17;100727.94;4973854;28;20404;-67
2021/04/06 02:02:04;;;;;;;1.38;0.20;;;;;;;-0.11;52.27;100733.91;4970117;28;20026;-67
2021/04/06 02:04:31;;;;;;;6.60;0.20;;;;;;;0.05;52.09;100738.19;4969292;28;20129;-67
2021/04/06 02:06:59;;;;;;;6.15;1.23;;;;;;;-0.26;53.02;100730.44;4968822;28;20579;-67
2021/04/06 02:09:25;;;;;;;2.42;0.52;;;;;;;-0.84;54.33;100740.47;4983616;28;20077;-66
2021/04/06 02:11:51;;;;;;;8.45;0.63;;;;;;;-0.44;54.08;100736.34;4982589;28;20042;-66
2021/04/06 02:14:19;;;;;;;11.57;1.20;;;;;;;-0.18;53.72;100736.44;4968271;28;20041;-67
2021/04/06 02:16:44;;;;;;;6.63;0.50;;;;;;;-0.51;55.60;100741.47;4968507;28;20066;-67
2021/04/06 02:19:19;;;;;;;9.10;0.98;;;;;;;-0.79;56.33;100733.69;4986851;28;20086;-68
2021/04/06 02:21:52;;;;;;;7.95;1.10;;;;;;;-0.80;56.47;100737.06;4984497;28;20042;-67
2021/04/06 02:24:28;;;;;;;15.48;1.73;;;;;;;-0.77;56.23;100744.81;5002722;28;20039;-67
2021/04/06 02:27:01;;;;;;;9.43;1.08;;;;;;;-0.66;55.94;100740.59;4969574;28;20022;-66
2021/04/06 02:29:28;;;;;;;27.85;2.00;;;;;;;-0.13;54.23;100742.44;4972378;28;20074;-68
2021/04/06 02:31:54;;;;;;;6.30;1.27;;;;;;;-0.70;54.40;100738.84;4987440;28;20026;-66
2021/04/06 02:34:19;;;;;;;4.85;0.50;;;;;;;-0.72;53.45;100737.97;4970117;28;20027;-66
2021/04/06 02:36:46;;;;;;;3.58;0.30;;;;;;;-0.22;51.35;100724.44;4972599;28;20050;-68
2021/04/06 02:39:12;;;;;;;11.32;0.88;;;;;;;-0.03;50.11;100727.06;4969793;28;20043;-68
2021/04/06 02:41:38;;;;;;;3.50;0.47;;;;;;;0.10;49.57;100726.22;4969321;28;20034;-69
2021/04/06 02:44:03;;;;;;;4.53;0.50;;;;;;;-0.02;49.75;100727.03;4968472;28;20755;-67
2021/04/06 02:46:29;;;;;;;2.38;0.25;;;;;;;0.28;48.68;100722.81;4974629;28;20018;-67
2021/04/06 02:48:58;;;;;;;9.25;1.02;;;;;;;0.38;48.42;100728.81;4969377;28;20521;-66
2021/04/06 02:51:24;;;;;;;11.57;0.98;;;;;;;0.41;48.30;100726.22;4968297;28;20539;-66
2021/04/06 02:53:51;;;;;;;6.55;0.90;;;;;;;0.14;49.08;100719.34;4970548;28;20096;-68
2021/04/06 02:56:37;;;;;;;5.90;0.30;;;;;;;-0.01;49.52;100715.09;4985448;28;20046;-68
2021/04/06 02:59:19;;;;;;;7.32;0.73;;;;;;;0.35;48.82;100715.97;4983244;28;20672;-68
2021/04/06 03:01:46;;;;;;;4.95;1.15;;;;;;;0.30;48.96;100710.81;4987010;28;20147;-67
2021/04/06 03:04:30;;;;;;;11.77;0.77;;;;;;;0.07;49.53;100715.94;4968420;28;20034;-67
2021/04/06 03:06:57;;;;;;;20.02;1.00;;;;;;;-0.15;49.83;100708.22;4983216;28;20396;-68
2021/04/06 03:09:25;;;;;;;5.72;0.90;;;;;;;0.40;48.91;100716.81;4965079;28;20037;-67
2021/04/06 03:11:53;;;;;;;17.35;1.52;;;;;;;0.50;48.70;100708.22;4966902;28;20033;-67
2021/04/06 03:14:24;;;;;;;11.32;1.83;;;;;;;0.84;47.81;100715.91;4982040;28;20074;-66
2021/04/06 03:16:51;;;;;;;9.10;0.80;;;;;;;0.61;47.26;100709.09;4979983;28;20118;-66
2021/04/06 03:19:17;;;;;;;15.60;3.17;;;;;;;0.66;46.91;100709.91;4971572;28;20033;-68
2021/04/06 03:21:43;;;;;;;4.72;0.65;;;;;;;0.39;47.17;100709.94;4965462;28;20034;-67
2021/04/06 03:24:10;;;;;;;12.73;1.15;;;;;;;0.25;46.49;100713.34;4967185;28;20035;-68
2021/04/06 03:26:36;;;;;;;9.52;1.20;;;;;;;0.26;46.14;100709.94;4966884;28;20109;-67
2021/04/06 03:29:02;;;;;;;7.90;0.80;;;;;;;0.27;45.30;100711.66;4967081;28;20121;-67
2021/04/06 03:31:31;;;;;;;6.30;0.93;;;;;;;-0.09;45.41;100696.22;4965612;28;20035;-67
2021/04/06 03:33:58;;;;;;;12.55;1.77;;;;;;;0.06;45.40;100696.25;4967265;28;20038;-68
2021/04/06 03:36:29;;;;;;;15.25;1.23;;;;;;;0.44;45.50;100703.09;4963239;28;20031;-66
2021/04/06 03:38:59;;;;;;;15.02;0.73;;;;;;;0.58;45.19;100696.22;4972665;28;20054;-66
2021/04/06 03:41:26;;;;;;;8.20;1.10;;;;;;;0.49;45.11;100704.78;4959653;28;20036;-66
2021/04/06 03:44:01;;;;;;;7.47;0.60;;;;;;;0.33;44.53;100699.66;4973009;28;20035;-65
2021/04/06 03:46:26;;;;;;;8.00;1.05;;;;;;;-0.22;44.15;100706.47;4992845;28;20039;-66
2021/04/06 03:48:52;;;;;;;6.85;1.13;;;;;;;0.18;43.77;100703.94;4959912;28;20039;-66
2021/04/06 03:51:29;;;;;;;11.75;0.85;;;;;;;0.21;43.96;100700.50;4961048;28;20039;-66
2021/04/06 03:53:56;;;;;;;17.65;1.20;;;;;;;0.19;44.28;100702.22;4960173;28;20078;-66
2021/04/06 03:56:32;;;;;;;11.95;0.77;;;;;;;0.35;44.07;100703.09;4960752;28;20532;-65
2021/04/06 03:59:02;;;;;;;9.45;1.23;;;;;;;0.37;44.64;100701.38;4959048;28;20156;-66
2021/04/06 04:01:28;;;;;;;12.35;0.80;;;;;;;0.28;44.29;100697.97;4991824;28;20065;-66
2021/04/06 04:03:57;;;;;;;12.18;0.93;;;;;;;0.30;44.39;100699.66;4960797;28;20026;-67
2021/04/06 04:06:29;;;;;;;22.52;1.50;;;;;;;0.33;44.33;100695.38;4991621;28;20077;-66
2021/04/06 04:08:55;;;;;;;4.97;0.47;;;;;;;0.16;44.84;100707.38;4961171;28;20054;-66
2021/04/06 04:11:22;;;;;;;19.77;1.00;;;;;;;0.12;45.68;100698.78;4959325;28;20282;-67
2021/04/06 04:13:47;;;;;;;5.18;0.50;;;;;;;-0.13;45.30;100714.19;4961083;28;20034;-67
2021/04/06 04:16:13;;;;;;;4.22;0.20;;;;;;;-0.13;45.79;100724.47;4975371;28;20381;-66
2021/04/06 04:18:39;;;;;;;7.43;1.50;;;;;;;-0.46;48.12;100747.47;4961655;28;20043;-66
2021/04/06 04:21:05;;;;;;;6.82;0.32;;;;;;;-0.54;51.12;100744.06;4961692;28;20085;-66
2021/04/06 04:23:31;;;;;;;6.03;1.00;;;;;;;-0.15;50.60;100733.91;4976745;28;20150;-67
2021/04/06 04:25:57;;;;;;;3.33;0.30;;;;;;;-0.42;51.36;100724.38;4961720;28;20049;-66
2021/04/06 04:28:22;;;;;;;6.63;0.55;;;;;;;-0.38;51.09;100727.84;4960739;28;20516;-67
2021/04/06 04:30:50;;;;;;;4.57;0.55;;;;;;;-0.19;50.49;100716.75;4975916;28;20031;-67
2021/04/06 04:33:16;;;;;;;4.43;0.30;;;;;;;0.14;49.53;100709.06;4974806;28;20069;-66
2021/04/06 04:35:42;;;;;;;8.68;0.85;;;;;;;0.07;49.32;100711.63;4961696;28;20121;-66
2021/04/06 04:38:08;;;;;;;4.18;0.20;;;;;;;-0.17;50.09;100703.91;4964096;28;20040;-67
2021/04/06 04:40:38;;;;;;;3.92;1.15;;;;;;;-0.16;49.41;100695.34;4974056;28;20091;-67
2021/04/06 04:43:03;;;;;;;4.97;0.43;;;;;;;-0.08;49.17;100695.34;4960682;28;20035;-67
2021/04/06 04:45:29;;;;;;;5.97;1.20;;;;;;;-0.10;49.04;100694.50;4957365;28;20086;-66
2021/04/06 04:47:54;;;;;;;7.40;1.17;;;;;;;-0.20;49.01;100683.34;4962055;28;20667;-66
2021/04/06 04:50:21;;;;;;;13.00;0.47;;;;;;;-0.05;48.51;100692.81;4960666;28;20158;-67
2021/04/06 04:52:48;;;;;;;6.15;0.88;;;;;;;0.10;48.17;100697.97;4964244;28;20041;-67
2021/04/06 04:55:16;;;;;;;3.03;0.28;;;;;;;0.17;47.79;100697.09;4978079;28;20027;-67
2021/04/06 04:57:42;;;;;;;5.55;0.40;;;;;;;-0.16;48.62;100701.34;4965329;28;20689;-66
2021/04/06 05:00:09;;;;;;;2.97;0.45;;;;;;;-0.06;48.11;100694.50;4967536;28;20027;-67
2021/04/06 05:02:34;;;;;;;4.22;1.17;;;;;;;0.22;47.65;100700.53;4962231;28;20133;-67
2021/04/06 05:05:00;;;;;;;7.05;0.60;;;;;;;0.19;47.69;100697.06;4965419;28;20252;-67
2021/04/06 05:07:26;;;;;;;9.63;0.40;;;;;;;0.27;47.59;100696.22;4969640;28;20043;-66
2021/04/06 05:09:51;;;;;;;11.20;0.57;;;;;;;0.47;47.10;100690.22;4967394;28;20641;-66
2021/04/06 05:12:17;;;;;;;3.67;0.45;;;;;;;0.23;47.77;100707.38;4964301;28;20133;-67
2021/04/06 05:14:42;;;;;;;4.70;0.75;;;;;;;0.46;47.75;100716.81;4963556;28;20263;-68
2021/04/06 05:17:08;;;;;;;11.43;1.08;;;;;;;-0.11;49.78;100714.19;4963874;28;20046;-67
2021/04/06 05:19:33;;;;;;;13.88;0.80;;;;;;;0.06;50.14;100719.38;4963645;28;20078;-67
2021/04/06 05:21:59;;;;;;;3.47;0.40;;;;;;;0.12;50.26;100716.78;4965532;28;20544;-66
2021/04/06 05:24:24;;;;;;;7.00;0.60;;;;;;;0.03;50.27;100716.78;4966991;28;20035;-67
2021/04/06 05:26:50;;;;;;;2.40;0.75;;;;;;;0.23;49.52;100717.69;4978565;28;20050;-67
2021/04/06 05:29:15;;;;;;;10.77;0.70;;;;;;;0.02;50.06;100715.06;4996281;28;20456;-66
2021/04/06 05:31:41;;;;;;;14.10;1.92;;;;;;;-0.65;51.05;100724.31;4964737;28;20098;-67
2021/04/06 05:34:06;;;;;;;10.95;0.82;;;;;;;-0.04;49.90;100733.03;4998229;28;20035;-68
2021/04/06 05:36:33;;;;;;;6.25;1.58;;;;;;;0.09;49.76;100733.94;4971419;28;20038;-68
2021/04/06 05:38:58;;;;;;;7.10;0.75;;;;;;;0.58;48.79;100719.34;4966206;28;20109;-66
2021/04/06 05:41:25;;;;;;;10.63;0.98;;;;;;;-0.32;49.98;100720.16;4969124;28;20126;-67
2021/04/06 05:43:58;;;;;;;13.15;1.33;;;;;;;0.22;48.55;100722.81;4967115;28;20496;-68
2021/04/06 05:46:25;;;;;;;3.83;0.40;;;;;;;0.55;47.52;100721.94;4970584;28;20532;-67
2021/04/06 05:48:52;;;;;;;4.85;0.30;;;;;;;1.31;46.27;100722.63;4968720;28;20054;-67
2021/04/06 05:51:18;;;;;;;6.70;0.40;;;;;;;1.57;45.11;100706.19;4972114;28;21081;-68
2021/04/06 05:53:44;;;;;;;5.47;0.47;;;;;;;2.20;42.80;100704.09;4969543;28;20473;-67
2021/04/06 05:56:09;;;;;;;8.98;0.50;;;;;;;2.73;41.69;100714.78;4965686;28;20038;-68
2021/04/06 05:58:35;;;;;;;8.85;0.95;;;;;;;1.64;44.85;100698.44;4965332;28;20047;-67
2021/04/06 06:01:00;;;;;;;4.47;0.40;;;;;;;1.20;46.18;100706.34;4962457;28;20165;-68
2021/04/06 06:03:26;;;;;;;14.85;1.65;;;;;;;0.88;46.46;100715.88;4981239;28;20035;-69
2021/04/06 06:05:52;;;;;;;7.95;1.05;;;;;;;0.95;47.01;100716.72;4969659;28;20045;-69
2021/04/06 06:08:18;;;;;;;11.07;0.65;;;;;;;1.31;46.72;100735.50;4969060;28;20046;-68
2021/04/06 06:10:44;;;;;;;5.45;1.08;;;;;;;1.06;46.70;100740.72;4969890;28;20039;-68
2021/04/06 06:13:17;;;;;;;5.03;0.40;;;;;;;0.99;46.70;100739.03;4984861;28;20686;-68
2021/04/06 06:15:42;;;;;;;6.88;0.95;;;;;;;0.78;47.36;100733.91;4980865;28;20047;-68
2021/04/06 06:18:08;;;;;;;5.63;1.00;;;;;;;0.52;48.02;100739.94;4969419;28;20050;-68
2021/04/06 06:20:35;;;;;;;12.00;0.40;;;;;;;0.39;47.98;100730.50;4963728;28;20049;-66
2021/04/06 06:23:23;;;;;;;8.77;0.90;;;;;;;0.56;47.24;100720.22;4967447;28;20110;-69
2021/04/06 06:26:06;;;;;;;2.20;0.30;;;;;;;0.55;47.01;100719.38;4983292;28;20043;-68
2021/04/06 06:28:35;;;;;;;10.15;1.80;;;;;;;0.44;47.19;100713.38;4964838;28;20166;-66
2021/04/06 06:31:01;;;;;;;10.60;0.68;;;;;;;1.01;45.98;100710.69;4964728;28;20138;-72
2021/04/06 06:33:30;;;;;;;9.55;0.95;;;;;;;1.17;45.42;100714.06;4965759;28;20087;-68
2021/04/06 06:36:09;;;;;;;8.73;0.75;;;;;;;1.21;45.27;100724.34;4968444;28;20041;-68
2021/04/06 06:38:39;;;;;;;7.38;1.05;;;;;;;1.32;45.35;100726.88;4962054;28;20173;-68
2021/04/06 06:41:08;;;;;;;4.38;0.20;;;;;;;0.95;45.66;100724.44;4998155;28;20035;-69
2021/04/06 06:43:34;;;;;;;9.07;0.50;;;;;;;0.73;46.16;100726.22;4968940;28;20516;-70
2021/04/06 06:46:00;;;;;;;7.43;0.95;;;;;;;0.80;46.21;100739.91;4968446;28;20035;-67
2021/04/06 06:48:34;;;;;;;8.93;1.05;;;;;;;0.24;47.47;100737.38;4966902;28;20035;-67
2021/04/06 06:51:02;;;;;;;4.05;0.40;;;;;;;-0.51;48.03;100718.38;4968163;28;20035;-69
2021/04/06 06:53:39;;;;;;;4.88;0.98;;;;;;;-0.21;48.09;100718.47;4968482;28;20061;-68
2021/04/06 06:56:10;;;;;;;9.63;0.60;;;;;;;-0.42;49.06;100718.41;4965299;28;20404;-68
2021/04/06 06:58:41;;;;;;;2.15;0.30;;;;;;;-0.31;49.55;100716.72;4979354;28;23935;-67
2021/04/06 07:01:08;;;;;;;10.80;0.57;;;;;;;0.08;49.03;100709.94;4979935;28;20039;-66
2021/04/06 07:03:34;;;;;;;7.53;0.88;;;;;;;0.38;47.89;100713.38;4965236;28;20086;-67
2021/04/06 07:06:22;;;;;;;9.38;0.82;;;;;;;0.11;48.11;100733.06;4966772;28;20544;-67
2021/04/06 07:08:48;;;;;;;5.65;0.50;;;;;;;0.03;49.24;100724.47;4966935;28;20084;-67
2021/04/06 07:11:15;;;;;;;3.80;0.40;;;;;;;0.47;48.51;100714.22;4966754;28;20585;-66
2021/04/06 07:13:44;;;;;;;5.50;0.65;;;;;;;0.38;48.52;100724.50;4965977;28;20034;-67
2021/04/06 07:16:12;;;;;;;3.63;0.30;;;;;;;-0.56;49.77;100724.34;4966150;28;20098;-67
2021/04/06 07:18:40;;;;;;;13.43;0.40;;;;;;;0.05;49.24;100710.81;4969586;28;20731;-69
2021/04/06 07:21:09;;;;;;;4.43;0.65;;;;;;;0.19;49.77;100718.53;4982124;28;20442;-67
2021/04/06 07:23:40;;;;;;;4.85;0.63;;;;;;;0.63;49.39;100715.06;4964800;28;20041;-69
2021/04/06 07:26:17;;;;;;;9.35;0.57;;;;;;;0.44;47.89;100714.22;4983674;28;20062;-67
2021/04/06 07:28:43;;;;;;;10.23;0.80;;;;;;;0.99;45.93;100696.97;4983776;28;20058;-68
2021/04/06 07:31:11;;;;;;;2.03;0.25;;;;;;;1.09;44.91;100699.50;4970259;28;20039;-67
2021/04/06 07:33:39;;;;;;;7.47;0.77;;;;;;;3.82;40.61;100694.53;4970595;28;20054;-66
2021/04/06 07:36:10;;;;;;;8.48;1.15;;;;;;;6.79;33.23;100686.69;4982626;28;20042;-66
2021/04/06 07:38:51;;;;;;;4.77;0.47;;;;;;;9.79;29.20;100686.31;4964652;28;20050;-67
2021/04/06 07:41:26;;;;;;;4.80;0.65;;;;;;;6.65;31.59;100719.06;4966296;28;20031;-68
2021/04/06 07:43:53;;;;;;;8.77;0.63;;;;;;;2.03;44.58;100742.88;4963846;28;20104;-66
2021/04/06 07:46:33;;;;;;;3.90;0.60;;;;;;;0.62;48.79;100746.78;4965505;28;20122;-68
2021/04/06 07:49:07;;;;;;;2.88;0.40;;;;;;;-0.09;50.66;100719.34;4966581;28;20793;-66
2021/04/06 07:51:47;;;;;;;6.70;0.50;;;;;;;-0.60;51.07;100707.22;4983340;28;20046;-67
2021/04/06 07:54:34;;;;;;;4.70;0.32;;;;;;;-0.26;50.27;100711.59;4967137;28;20038;-66
2021/04/06 07:57:00;;;;;;;3.85;0.30;;;;;;;-0.26;50.21;100699.63;4967820;28;20089;-66
2021/04/06 07:59:26;;;;;;;1.88;0.40;;;;;;;0.53;47.61;100703.09;4983126;28;20043;-65
2021/04/06 08:01:54;;;;;;;5.53;0.55;;;;;;;0.04;47.54;100692.81;4968176;28;20468;-66
2021/04/06 08:04:47;;;;;;;3.75;0.80;;;;;;;0.81;45.54;100697.88;4981888;28;20058;-67
2021/04/06 08:07:19;;;;;;;8.30;0.47;;;;;;;1.07;43.90;100690.94;4967310;28;20023;-65
2021/04/06 08:09:51;;;;;;;4.63;0.65;;;;;;;2.05;40.89;100684.41;4968387;28;20130;-66
2021/04/06 08:12:36;;;;;;;3.67;0.50;;;;;;;4.21;36.60;100685.31;4965978;28;20395;-66
2021/04/06 08:15:12;;;;;;;6.63;0.22;;;;;;;6.43;33.22;100679.81;4981197;28;20049;-66
2021/04/06 08:17:41;;;;;;;3.83;1.17;;;;;;;7.89;30.15;100680.88;4963732;28;20503;-66
2021/04/06 08:20:14;;;;;;;2.85;0.38;;;;;;;8.53;28.62;100682.22;4978830;28;20078;-65
2021/04/06 08:22:46;;;;;;;1.35;0.30;;;;;;;8.54;28.71;100682.19;4964293;28;20600;-66
2021/04/06 08:25:25;;;;;;;4.82;0.30;;;;;;;9.48;28.16;100670.97;4964509;28;20153;-67
2021/04/06 08:27:54;;;;;;;3.50;0.38;;;;;;;9.71;27.93;100677.06;4968856;28;20046;-66
2021/04/06 08:30:22;;;;;;;8.40;0.40;;;;;;;9.83;28.86;100671.34;4969320;28;20034;-67
2021/04/06 08:33:00;;;;;;;5.47;0.77;;;;;;;11.04;26.30;100663.63;4967199;28;20069;-67
2021/04/06 08:35:44;;;;;;;3.83;0.55;;;;;;;11.58;25.55;100670.75;4998397;28;20054;-67
2021/04/06 08:38:25;;;;;;;6.72;0.52;;;;;;;7.73;31.58;100687.44;4974317;28;20530;-67
2021/04/06 08:41:14;;;;;;;9.10;0.80;;;;;;;3.47;39.05;100694.16;4975016;28;20042;-66
2021/04/06 08:43:47;;;;;;;6.30;0.30;;;;;;;2.42;41.91;100712.50;4968325;28;20062;-65
2021/04/06 08:46:15;;;;;;;2.05;0.20;;;;;;;1.98;42.98;100702.53;4968217;28;20448;-66
2021/04/06 08:48:50;;;;;;;5.80;1.00;;;;;;;1.83;43.71;100718.94;4966382;28;20714;-66
2021/04/06 08:51:32;;;;;;;3.70;0.30;;;;;;;1.30;45.76;100708.00;4978893;28;20098;-66
2021/04/06 08:54:13;;;;;;;4.88;0.77;;;;;;;1.63;44.78;100706.19;4968079;28;20544;-67
2021/04/06 08:56:44;;;;;;;3.85;0.20;;;;;;;1.09;45.16;100709.81;4984836;28;20042;-66
2021/04/06 08:59:10;;;;;;;8.90;0.50;;;;;;;1.50;44.70;100708.81;4966182;28;20052;-67
2021/04/06 09:01:36;;;;;;;7.22;0.77;;;;;;;1.88;44.45;100712.88;4972248;28;20074;-68
2021/04/06 09:04:13;;;;;;;7.65;1.05;;;;;;;2.38;44.17;100709.94;4966263;28;20157;-66
2021/04/06 09:06:39;;;;;;;3.10;0.88;;;;;;;2.55;43.67;100705.47;4984934;28;20547;-67
2021/04/06 09:09:11;;;;;;;5.03;0.30;;;;;;;3.01;43.46;100699.00;4983116;28;21063;-68
2021/04/06 09:11:39;;;;;;;4.65;0.50;;;;;;;3.98;42.31;100699.47;4966954;28;20038;-66
2021/04/06 09:14:05;;;;;;;5.53;0.73;;;;;;;5.18;38.99;100696.50;4980983;28;20631;-66
2021/04/06 09:16:33;;;;;;;9.25;0.57;;;;;;;5.23;39.12;100687.78;4963959;28;20047;-66
2021/04/06 09:19:08;;;;;;;5.68;0.50;;;;;;;5.16;39.76;100683.56;4983024;28;20041;-66
2021/04/06 09:21:35;;;;;;;15.60;0.98;;;;;;;4.82;38.82;100684.22;4978908;28;20101;-65
2021/04/06 09:24:05;;;;;;;4.93;0.35;;;;;;;4.67;39.90;100673.28;4994521;28;20041;-66
2021/04/06 09:26:31;;;;;;;7.05;0.68;;;;;;;5.84;37.94;100663.97;4969481;28;20050;-65
2021/04/06 09:29:04;;;;;;;14.32;1.77;;;;;;;6.49;36.56;100658.88;4968844;28;20074;-66
2021/04/06 09:31:32;;;;;;;6.07;0.63;;;;;;;6.53;35.68;100653.59;4969050;28;20035;-66
2021/04/06 09:34:12;;;;;;;4.60;0.40;;;;;;;5.52;35.81;100678.50;4963304;28;20038;-66
2021/04/06 09:36:40;;;;;;;1.25;0.17;;;;;;;3.09;39.36;100679.97;4968182;28;20027;-67
2021/04/06 09:39:07;;;;;;;9.40;0.70;;;;;;;2.52;42.31;100690.91;4977594;28;20756;-66
2021/04/06 09:41:36;;;;;;;6.82;0.50;;;;;;;1.97;44.42;100691.34;4968062;28;20045;-68
2021/04/06 09:44:04;;;;;;;4.78;0.40;;;;;;;1.84;45.06;100698.34;4963588;28;20043;-66
2021/04/06 09:46:36;;;;;;;9.27;1.23;;;;;;;2.39;43.71;100688.44;4969629;28;20041;-67
2021/04/06 09:49:02;;;;;;;6.60;0.32;;;;;;;2.92;41.73;100684.47;4968770;28;20174;-66
2021/04/06 09:51:29;;;;;;;1.90;0.60;;;;;;;3.90;40.89;100690.97;4964570;28;20057;-67
2021/04/06 09:53:54;;;;;;;1.83;0.20;;;;;;;4.60;38.36;100686.34;4952228;28;20049;-65
2021/04/06 09:56:20;;;;;;;2.25;0.68;;;;;;;5.19;37.26;100670.56;4969684;28;20315;-66
2021/04/06 09:58:47;;;;;;;3.30;0.10;;;;;;;4.59;37.54;100678.63;4969042;28;20033;-66
2021/04/06 10:01:21;;;;;;;2.75;0.45;;;;;;;5.29;37.06;100667.78;4964686;28;20734;-66
2021/04/06 10:03:50;;;;;;;6.28;0.32;;;;;;;5.18;36.35;100663.66;4963267;28;20503;-66
2021/04/06 10:06:16;;;;;;;4.30;0.10;;;;;;;4.13;37.46;100667.31;4963802;28;20226;-68
2021/04/06 10:08:42;;;;;;;1.35;0.03;;;;;;;3.74;38.71;100686.91;4969583;28;20546;-69
2021/04/06 10:11:09;;;;;;;6.45;1.08;;;;;;;3.38;39.31;100668.44;4977192;28;20035;-67
2021/04/06 10:13:38;;;;;;;6.55;0.20;;;;;;;3.90;37.29;100661.69;4963148;28;20408;-68
2021/04/06 10:16:16;;;;;;;2.88;0.28;;;;;;;4.72;36.17;100661.97;4994316;28;20117;-67
2021/04/06 10:18:44;;;;;;;0.88;0.40;;;;;;;4.87;33.82;100655.63;4976534;28;20032;-69
2021/04/06 10:21:18;;;;;;;4.38;0.10;;;;;;;4.80;32.29;100641.09;4978485;28;20035;-69
2021/04/06 10:23:43;;;;;;;5.32;0.60;;;;;;;3.98;32.12;100641.69;4961804;28;20086;-68
2021/04/06 10:26:21;;;;;;;5.60;0.30;;;;;;;4.86;32.51;100624.59;4963727;28;20031;-68
2021/04/06 10:28:46;;;;;;;8.77;0.40;;;;;;;5.05;32.62;100631.97;4961009;28;20043;-66
2021/04/06 10:31:12;;;;;;;2.65;0.40;;;;;;;6.04;32.18;100625.41;4962771;28;20039;-69
2021/04/06 10:33:38;;;;;;;7.03;0.28;;;;;;;5.90;35.38;100632.66;4963195;28;20767;-67
2021/04/06 10:36:07;;;;;;;0.95;0.30;;;;;;;3.95;41.95;100657.28;4981056;28;20493;-67
2021/04/06 10:38:40;;;;;;;0.68;0.00;;;;;;;2.29;42.72;100655.00;4965143;28;20042;-67
2021/04/06 10:41:12;;;;;;;2.13;0.20;;;;;;;1.83;43.81;100655.38;4979559;28;20042;-68
2021/04/06 10:43:45;;;;;;;4.38;0.25;;;;;;;2.57;42.43;100663.31;4974270;28;20061;-67
2021/04/06 10:46:16;;;;;;;3.20;0.10;;;;;;;2.40;41.39;100649.75;4973469;28;20035;-68
2021/04/06 10:49:07;;;;;;;1.67;0.10;;;;;;;2.75;41.03;100662.25;4973391;28;20461;-67
2021/04/06 10:51:34;;;;;;;2.58;0.20;;;;;;;2.63;42.11;100662.41;4969588;28;20066;-68
2021/04/06 10:54:07;;;;;;;5.53;0.55;;;;;;;3.18;42.64;100651.44;4988244;28;20038;-67
2021/04/06 10:56:42;;;;;;;5.10;0.80;;;;;;;3.79;42.44;100656.66;4971689;28;20453;-67
2021/04/06 10:59:10;;;;;;;7.22;0.28;;;;;;;3.43;42.56;100651.16;4967405;28;20081;-67
2021/04/06 11:01:47;;;;;;;10.60;1.48;;;;;;;4.11;39.87;100644.94;4970667;28;20070;-68
2021/04/06 11:04:15;;;;;;;3.33;0.68;;;;;;;4.30;37.95;100636.00;4972028;28;20597;-67
2021/04/06 11:06:48;;;;;;;2.58;0.28;;;;;;;5.40;36.63;100620.00;4971827;28;20026;-67
2021/04/06 11:09:23;;;;;;;4.20;0.95;;;;;;;5.77;35.46;100626.06;4987659;28;20421;-67
2021/04/06 11:11:51;;;;;;;6.70;0.10;;;;;;;5.52;35.56;100616.28;4979994;28;20572;-67
2021/04/06 11:14:19;;;;;;;9.70;0.50;;;;;;;5.81;35.17;100615.59;4965584;28;20579;-66
2021/04/06 11:16:46;;;;;;;4.85;0.75;;;;;;;6.01;34.14;100622.03;4966724;28;20062;-67
2021/04/06 11:19:15;;;;;;;2.95;0.40;;;;;;;6.14;33.64;100609.59;4969669;28;20050;-66
2021/04/06 11:21:49;;;;;;;6.55;0.47;;;;;;;6.44;33.26;100603.66;4967669;28;20053;-68
2021/04/06 11:24:17;;;;;;;5.53;0.20;;;;;;;5.92;34.05;100594.56;4985609;28;20035;-66
2021/04/06 11:26:43;;;;;;;3.20;0.20;;;;;;;5.18;35.53;100601.47;4992241;28;20562;-67
2021/04/06 11:29:11;;;;;;;7.03;0.30;;;;;;;5.70;34.87;100606.38;4969440;28;20116;-66
2021/04/06 11:31:39;;;;;;;6.63;1.38;;;;;;;6.01;36.37;100609.91;4962470;28;20050;-66
2021/04/06 11:34:06;;;;;;;7.97;0.65;;;;;;;4.97;38.92;100609.72;4983910;28;20034;-68
2021/04/06 11:36:32;;;;;;;7.63;0.40;;;;;;;3.49;42.59;100612.31;4966602;28;20222;-67
2021/04/06 11:38:59;;;;;;;2.97;0.28;;;;;;;2.77;44.53;100626.13;4964271;28;20035;-69